sensor_id;sensor_type;location;lat;lon;timestamp;temperature;humidity
16136;DHT22;8173;48.354;9.248;2023-04-24T00:03:10;7.20;99.90
16136;DHT22;8173;48.354;9.248;2023-04-24T00:13:02;7.00;99.90
16136;DHT22;8173;48.354;9.248;2023-04-24T00:15:29;7.00;99.90
16136;DHT22;8173;48.354;9.248;2023-04-24T00:20:23;7.00;99.90
16136;DHT22;8173;48.354;9.248;2023-04-24T00:25:17;7.10;99.90
16136;DHT22;8173;48.354;9.248;2023-04-24T00:42:28;7.40;99.90
16136;DHT22;8173;48.354;9.248;2023-04-24T00:47:25;7.40;99.90
16136;DHT22;8173;48.354;9.248;2023-04-24T00:49:52;7.40;99.90
16136;DHT22;8173;48.354;9.248;2023-04-24T00:52:18;7.40;99.90
16136;DHT22;8173;48.354;9.248;2023-04-24T00:54:46;7.30;99.90
16136;DHT22;8173;48.354;9.248;2023-04-24T00:57:14;7.30;99.90
16136;DHT22;8173;48.354;9.248;2023-04-24T01:02:11;7.40;99.90
16136;DHT22;8173;48.354;9.248;2023-04-24T01:04:38;7.30;99.90
16136;DHT22;8173;48.354;9.248;2023-04-24T01:07:05;7.40;99.90
16136;DHT22;8173;48.354;9.248;2023-04-24T01:09:35;7.40;99.90
16136;DHT22;8173;48.354;9.248;2023-04-24T01:12:02;7.40;99.90
16136;DHT22;8173;48.354;9.248;2023-04-24T01:16:57;7.40;99.90
16136;DHT22;8173;48.354;9.248;2023-04-24T01:19:25;7.30;99.90
16136;DHT22;8173;48.354;9.248;2023-04-24T01:21:53;7.30;99.90
16136;DHT22;8173;48.354;9.248;2023-04-24T01:36:41;7.30;99.90
16136;DHT22;8173;48.354;9.248;2023-04-24T01:41:38;7.30;99.90
16136;DHT22;8173;48.354;9.248;2023-04-24T01:51:27;7.10;99.90
16136;DHT22;8173;48.354;9.248;2023-04-24T01:58:50;7.10;99.90
16136;DHT22;8173;48.354;9.248;2023-04-24T02:06:13;7.00;99.90
16136;DHT22;8173;48.354;9.248;2023-04-24T02:13:35;6.90;99.90
16136;DHT22;8173;48.354;9.248;2023-04-24T02:25:52;6.90;99.90
16136;DHT22;8173;48.354;9.248;2023-04-24T02:43:04;7.00;99.90
16136;DHT22;8173;48.354;9.248;2023-04-24T02:45:31;7.00;99.90
16136;DHT22;8173;48.354;9.248;2023-04-24T02:48:00;7.10;99.90
16136;DHT22;8173;48.354;9.248;2023-04-24T03:05:10;7.00;99.90
16136;DHT22;8173;48.354;9.248;2023-04-24T03:12:34;6.90;99.90
16136;DHT22;8173;48.354;9.248;2023-04-24T03:17:28;6.90;99.90
16136;DHT22;8173;48.354;9.248;2023-04-24T03:19:55;6.80;99.90
16136;DHT22;8173;48.354;9.248;2023-04-24T03:27:17;6.70;99.90
16136;DHT22;8173;48.354;9.248;2023-04-24T03:32:11;6.70;99.90
16136;DHT22;8173;48.354;9.248;2023-04-24T03:34:38;6.70;99.90
16136;DHT22;8173;48.354;9.248;2023-04-24T03:39:31;6.70;99.90
16136;DHT22;8173;48.354;9.248;2023-04-24T03:46:54;6.60;99.90
16136;DHT22;8173;48.354;9.248;2023-04-24T03:51:48;6.60;99.90
16136;DHT22;8173;48.354;9.248;2023-04-24T03:54:14;6.60;99.90
16136;DHT22;8173;48.354;9.248;2023-04-24T04:01:37;6.60;99.90
16136;DHT22;8173;48.354;9.248;2023-04-24T04:31:06;6.70;99.90
16136;DHT22;8173;48.354;9.248;2023-04-24T04:43:24;7.60;99.90
16136;DHT22;8173;48.354;9.248;2023-04-24T04:45:51;6.90;99.90
16136;DHT22;8173;48.354;9.248;2023-04-24T04:55:42;6.90;99.90
16136;DHT22;8173;48.354;9.248;2023-04-24T05:00:36;7.00;99.90
16136;DHT22;8173;48.354;9.248;2023-04-24T05:05:30;7.00;99.90
16136;DHT22;8173;48.354;9.248;2023-04-24T05:10:25;7.10;99.90
16136;DHT22;8173;48.354;9.248;2023-04-24T05:12:52;6.90;99.90
16136;DHT22;8173;48.354;9.248;2023-04-24T05:25:09;6.40;99.90
16136;DHT22;8173;48.354;9.248;2023-04-24T05:27:35;6.40;99.90
16136;DHT22;8173;48.354;9.248;2023-04-24T05:30:03;6.30;99.90
16136;DHT22;8173;48.354;9.248;2023-04-24T05:32:30;6.10;99.90
16136;DHT22;8173;48.354;9.248;2023-04-24T05:39:51;5.90;99.90
16136;DHT22;8173;48.354;9.248;2023-04-24T05:49:40;6.00;99.90
16136;DHT22;8173;48.354;9.248;2023-04-24T05:57:01;6.20;99.90
16136;DHT22;8173;48.354;9.248;2023-04-24T06:02:01;6.30;99.90
16136;DHT22;8173;48.354;9.248;2023-04-24T06:09:22;6.30;99.90
16136;DHT22;8173;48.354;9.248;2023-04-24T06:14:18;6.50;99.90
16136;DHT22;8173;48.354;9.248;2023-04-24T06:21:40;7.50;99.90
16136;DHT22;8173;48.354;9.248;2023-04-24T06:26:34;7.20;99.90
16136;DHT22;8173;48.354;9.248;2023-04-24T06:36:23;7.80;99.90
16136;DHT22;8173;48.354;9.248;2023-04-24T06:41:17;10.20;99.90
16136;DHT22;8173;48.354;9.248;2023-04-24T06:43:44;11.60;99.90
16136;DHT22;8173;48.354;9.248;2023-04-24T06:48:39;13.00;99.90
16136;DHT22;8173;48.354;9.248;2023-04-24T06:51:07;13.50;99.90
16136;DHT22;8173;48.354;9.248;2023-04-24T06:58:30;10.90;99.90
16136;DHT22;8173;48.354;9.248;2023-04-24T07:03:24;11.10;99.90
16136;DHT22;8173;48.354;9.248;2023-04-24T07:08:20;12.50;99.90
16136;DHT22;8173;48.354;9.248;2023-04-24T07:13:14;13.40;99.90
16136;DHT22;8173;48.354;9.248;2023-04-24T07:20:35;12.60;99.90
16136;DHT22;8173;48.354;9.248;2023-04-24T07:27:58;11.40;99.90
16136;DHT22;8173;48.354;9.248;2023-04-24T07:30:24;10.90;99.90
16136;DHT22;8173;48.354;9.248;2023-04-24T07:35:18;10.40;99.90
16136;DHT22;8173;48.354;9.248;2023-04-24T07:42:41;9.80;99.90
16136;DHT22;8173;48.354;9.248;2023-04-24T07:45:09;9.40;99.90
16136;DHT22;8173;48.354;9.248;2023-04-24T07:52:32;8.20;99.90
16136;DHT22;8173;48.354;9.248;2023-04-24T07:54:59;7.50;99.90
16136;DHT22;8173;48.354;9.248;2023-04-24T07:57:27;7.10;99.90
16136;DHT22;8173;48.354;9.248;2023-04-24T08:02:22;7.00;99.90
16136;DHT22;8173;48.354;9.248;2023-04-24T08:04:51;7.00;99.90
16136;DHT22;8173;48.354;9.248;2023-04-24T08:12:13;7.90;99.90
16136;DHT22;8173;48.354;9.248;2023-04-24T08:22:02;8.50;99.90
16136;DHT22;8173;48.354;9.248;2023-04-24T08:29:24;9.10;99.90
16136;DHT22;8173;48.354;9.248;2023-04-24T08:31:52;9.20;99.90
16136;DHT22;8173;48.354;9.248;2023-04-24T08:36:48;9.70;99.90
16136;DHT22;8173;48.354;9.248;2023-04-24T08:39:15;10.30;99.90
16136;DHT22;8173;48.354;9.248;2023-04-24T08:41:43;10.30;99.90
16136;DHT22;8173;48.354;9.248;2023-04-24T08:44:11;9.60;99.90
16136;DHT22;8173;48.354;9.248;2023-04-24T08:46:38;9.50;99.90
16136;DHT22;8173;48.354;9.248;2023-04-24T08:49:05;10.50;99.90
16136;DHT22;8173;48.354;9.248;2023-04-24T08:51:34;9.30;99.90
16136;DHT22;8173;48.354;9.248;2023-04-24T08:54:03;9.90;99.90
16136;DHT22;8173;48.354;9.248;2023-04-24T08:56:33;10.40;99.90
16136;DHT22;8173;48.354;9.248;2023-04-24T08:59:01;10.20;99.90
16136;DHT22;8173;48.354;9.248;2023-04-24T09:01:28;9.80;99.90
16136;DHT22;8173;48.354;9.248;2023-04-24T09:03:55;9.30;99.90
16136;DHT22;8173;48.354;9.248;2023-04-24T09:06:23;9.20;99.90
16136;DHT22;8173;48.354;9.248;2023-04-24T09:08:53;9.40;99.90
16136;DHT22;8173;48.354;9.248;2023-04-24T09:11:21;9.80;99.90
16136;DHT22;8173;48.354;9.248;2023-04-24T09:13:50;10.00;99.90
16136;DHT22;8173;48.354;9.248;2023-04-24T09:16:18;9.70;99.90
16136;DHT22;8173;48.354;9.248;2023-04-24T09:18:45;9.80;99.90
16136;DHT22;8173;48.354;9.248;2023-04-24T09:23:40;9.00;99.90
16136;DHT22;8173;48.354;9.248;2023-04-24T09:26:09;8.70;99.90
16136;DHT22;8173;48.354;9.248;2023-04-24T09:28:37;8.60;99.90
16136;DHT22;8173;48.354;9.248;2023-04-24T09:31:06;9.00;99.90
16136;DHT22;8173;48.354;9.248;2023-04-24T09:33:33;9.80;99.90
16136;DHT22;8173;48.354;9.248;2023-04-24T09:36:00;10.50;99.90
16136;DHT22;8173;48.354;9.248;2023-04-24T09:38:32;10.90;99.90
16136;DHT22;8173;48.354;9.248;2023-04-24T09:41:00;11.30;99.90
16136;DHT22;8173;48.354;9.248;2023-04-24T09:43:29;11.80;99.90
16136;DHT22;8173;48.354;9.248;2023-04-24T09:45:57;12.40;99.90
16136;DHT22;8173;48.354;9.248;2023-04-24T09:48:30;12.50;99.90
16136;DHT22;8173;48.354;9.248;2023-04-24T09:50:57;12.40;99.90
16136;DHT22;8173;48.354;9.248;2023-04-24T09:53:25;11.90;99.90
16136;DHT22;8173;48.354;9.248;2023-04-24T09:55:52;11.20;99.90
16136;DHT22;8173;48.354;9.248;2023-04-24T09:58:21;10.40;99.90
16136;DHT22;8173;48.354;9.248;2023-04-24T10:00:53;9.90;99.90
16136;DHT22;8173;48.354;9.248;2023-04-24T10:03:20;9.90;99.90
16136;DHT22;8173;48.354;9.248;2023-04-24T10:05:47;10.40;99.90
16136;DHT22;8173;48.354;9.248;2023-04-24T10:08:14;10.80;99.90
16136;DHT22;8173;48.354;9.248;2023-04-24T10:10:42;11.20;99.90
16136;DHT22;8173;48.354;9.248;2023-04-24T10:13:09;11.40;99.90
16136;DHT22;8173;48.354;9.248;2023-04-24T10:15:37;11.20;99.90
16136;DHT22;8173;48.354;9.248;2023-04-24T10:18:05;11.00;99.90
16136;DHT22;8173;48.354;9.248;2023-04-24T10:20:34;11.30;99.90
16136;DHT22;8173;48.354;9.248;2023-04-24T10:23:00;10.90;99.90
16136;DHT22;8173;48.354;9.248;2023-04-24T10:25:29;10.50;99.90
16136;DHT22;8173;48.354;9.248;2023-04-24T10:27:57;10.20;99.90
16136;DHT22;8173;48.354;9.248;2023-04-24T10:30:26;9.30;99.90
16136;DHT22;8173;48.354;9.248;2023-04-24T10:32:53;9.10;99.90
16136;DHT22;8173;48.354;9.248;2023-04-24T10:35:22;9.00;99.90
16136;DHT22;8173;48.354;9.248;2023-04-24T10:37:54;8.80;99.90
16136;DHT22;8173;48.354;9.248;2023-04-24T10:40:26;8.80;99.90
16136;DHT22;8173;48.354;9.248;2023-04-24T10:42:53;8.60;99.90
16136;DHT22;8173;48.354;9.248;2023-04-24T10:45:21;8.70;99.90
16136;DHT22;8173;48.354;9.248;2023-04-24T10:47:53;8.60;99.90
16136;DHT22;8173;48.354;9.248;2023-04-24T10:50:21;9.10;99.90
16136;DHT22;8173;48.354;9.248;2023-04-24T10:52:49;9.90;99.90
16136;DHT22;8173;48.354;9.248;2023-04-24T10:58:01;10.00;99.90
16136;DHT22;8173;48.354;9.248;2023-04-24T11:00:29;10.00;99.90
16136;DHT22;8173;48.354;9.248;2023-04-24T11:02:56;10.10;99.90
16136;DHT22;8173;48.354;9.248;2023-04-24T11:08:29;11.90;99.90
16136;DHT22;8173;48.354;9.248;2023-04-24T11:10:58;13.00;99.90
16136;DHT22;8173;48.354;9.248;2023-04-24T11:13:26;12.20;99.90
16136;DHT22;8173;48.354;9.248;2023-04-24T11:16:12;12.10;99.90
16136;DHT22;8173;48.354;9.248;2023-04-24T11:18:39;12.10;99.90
16136;DHT22;8173;48.354;9.248;2023-04-24T11:21:11;11.90;99.90
16136;DHT22;8173;48.354;9.248;2023-04-24T11:23:39;11.10;99.90
16136;DHT22;8173;48.354;9.248;2023-04-24T11:26:16;10.80;99.90
16136;DHT22;8173;48.354;9.248;2023-04-24T11:28:47;11.30;99.90
16136;DHT22;8173;48.354;9.248;2023-04-24T11:31:39;11.40;99.90
16136;DHT22;8173;48.354;9.248;2023-04-24T11:34:10;11.00;99.90
16136;DHT22;8173;48.354;9.248;2023-04-24T11:36:37;10.30;99.90
16136;DHT22;8173;48.354;9.248;2023-04-24T11:41:33;9.60;99.90
16136;DHT22;8173;48.354;9.248;2023-04-24T11:44:01;9.50;99.90
16136;DHT22;8173;48.354;9.248;2023-04-24T11:46:29;10.10;99.90
16136;DHT22;8173;48.354;9.248;2023-04-24T11:48:57;10.50;99.90
16136;DHT22;8173;48.354;9.248;2023-04-24T11:51:25;10.40;99.90
16136;DHT22;8173;48.354;9.248;2023-04-24T11:56:21;10.50;99.90
16136;DHT22;8173;48.354;9.248;2023-04-24T11:58:48;10.20;99.90
16136;DHT22;8173;48.354;9.248;2023-04-24T12:01:15;10.30;99.90
16136;DHT22;8173;48.354;9.248;2023-04-24T12:03:41;10.40;99.90
16136;DHT22;8173;48.354;9.248;2023-04-24T12:06:12;10.40;99.90
16136;DHT22;8173;48.354;9.248;2023-04-24T12:08:39;10.30;99.90
16136;DHT22;8173;48.354;9.248;2023-04-24T12:11:06;10.00;99.90
16136;DHT22;8173;48.354;9.248;2023-04-24T12:13:35;10.00;99.90
16136;DHT22;8173;48.354;9.248;2023-04-24T12:16:03;10.70;99.90
16136;DHT22;8173;48.354;9.248;2023-04-24T12:18:31;10.00;99.90
16136;DHT22;8173;48.354;9.248;2023-04-24T12:21:16;11.20;99.90
16136;DHT22;8173;48.354;9.248;2023-04-24T12:23:43;9.80;99.90
16136;DHT22;8173;48.354;9.248;2023-04-24T12:26:11;9.70;99.90
16136;DHT22;8173;48.354;9.248;2023-04-24T12:28:39;9.60;99.90
16136;DHT22;8173;48.354;9.248;2023-04-24T12:31:06;9.40;99.90
16136;DHT22;8173;48.354;9.248;2023-04-24T12:33:34;9.30;99.90
16136;DHT22;8173;48.354;9.248;2023-04-24T12:36:02;9.30;99.90
16136;DHT22;8173;48.354;9.248;2023-04-24T12:38:29;9.20;99.90
16136;DHT22;8173;48.354;9.248;2023-04-24T12:41:03;9.60;99.90
16136;DHT22;8173;48.354;9.248;2023-04-24T12:43:30;8.80;99.90
16136;DHT22;8173;48.354;9.248;2023-04-24T12:45:59;10.20;99.90
16136;DHT22;8173;48.354;9.248;2023-04-24T12:48:25;10.70;99.90
16136;DHT22;8173;48.354;9.248;2023-04-24T12:50:52;9.50;99.90
16136;DHT22;8173;48.354;9.248;2023-04-24T12:53:20;9.10;99.90
16136;DHT22;8173;48.354;9.248;2023-04-24T12:55:47;9.50;99.90
16136;DHT22;8173;48.354;9.248;2023-04-24T12:58:19;9.60;99.90
16136;DHT22;8173;48.354;9.248;2023-04-24T13:00:46;9.80;99.90
16136;DHT22;8173;48.354;9.248;2023-04-24T13:03:14;9.90;99.90
16136;DHT22;8173;48.354;9.248;2023-04-24T13:05:42;9.90;99.90
16136;DHT22;8173;48.354;9.248;2023-04-24T13:08:09;10.70;99.90
16136;DHT22;8173;48.354;9.248;2023-04-24T13:10:36;10.40;99.90
16136;DHT22;8173;48.354;9.248;2023-04-24T13:13:03;10.30;99.90
16136;DHT22;8173;48.354;9.248;2023-04-24T13:15:29;12.10;99.90
16136;DHT22;8173;48.354;9.248;2023-04-24T13:17:56;11.00;99.90
16136;DHT22;8173;48.354;9.248;2023-04-24T13:20:24;11.30;99.90
16136;DHT22;8173;48.354;9.248;2023-04-24T13:22:51;11.90;99.90
16136;DHT22;8173;48.354;9.248;2023-04-24T13:25:18;11.70;99.90
16136;DHT22;8173;48.354;9.248;2023-04-24T13:27:45;11.70;99.90
16136;DHT22;8173;48.354;9.248;2023-04-24T13:30:12;11.60;99.90
16136;DHT22;8173;48.354;9.248;2023-04-24T13:32:39;11.40;99.90
16136;DHT22;8173;48.354;9.248;2023-04-24T13:35:07;11.10;99.90
16136;DHT22;8173;48.354;9.248;2023-04-24T13:37:35;11.10;99.90
16136;DHT22;8173;48.354;9.248;2023-04-24T13:40:02;11.30;99.90
16136;DHT22;8173;48.354;9.248;2023-04-24T13:42:31;11.80;99.90
16136;DHT22;8173;48.354;9.248;2023-04-24T13:47:25;11.40;99.90
16136;DHT22;8173;48.354;9.248;2023-04-24T13:49:52;11.40;99.90
16136;DHT22;8173;48.354;9.248;2023-04-24T13:52:19;11.30;99.90
16136;DHT22;8173;48.354;9.248;2023-04-24T13:54:47;10.10;99.90
16136;DHT22;8173;48.354;9.248;2023-04-24T13:57:14;10.80;99.90
16136;DHT22;8173;48.354;9.248;2023-04-24T13:59:42;12.20;99.90
16136;DHT22;8173;48.354;9.248;2023-04-24T14:02:08;10.60;99.90
16136;DHT22;8173;48.354;9.248;2023-04-24T14:04:35;10.60;99.90
16136;DHT22;8173;48.354;9.248;2023-04-24T14:07:02;10.50;99.90
16136;DHT22;8173;48.354;9.248;2023-04-24T14:09:29;10.60;99.90
16136;DHT22;8173;48.354;9.248;2023-04-24T14:11:57;10.90;99.90
16136;DHT22;8173;48.354;9.248;2023-04-24T14:14:23;11.60;99.90
16136;DHT22;8173;48.354;9.248;2023-04-24T14:21:45;11.80;99.90
16136;DHT22;8173;48.354;9.248;2023-04-24T14:24:12;12.30;99.90
16136;DHT22;8173;48.354;9.248;2023-04-24T14:26:38;12.30;99.90
16136;DHT22;8173;48.354;9.248;2023-04-24T14:29:06;11.80;99.90
16136;DHT22;8173;48.354;9.248;2023-04-24T14:31:33;11.70;99.90
16136;DHT22;8173;48.354;9.248;2023-04-24T14:34:00;11.90;99.90
16136;DHT22;8173;48.354;9.248;2023-04-24T14:36:27;11.40;99.90
16136;DHT22;8173;48.354;9.248;2023-04-24T14:38:53;12.40;99.90
16136;DHT22;8173;48.354;9.248;2023-04-24T14:41:20;13.10;99.90
16136;DHT22;8173;48.354;9.248;2023-04-24T14:43:47;13.10;99.90
16136;DHT22;8173;48.354;9.248;2023-04-24T14:46:15;12.00;99.90
16136;DHT22;8173;48.354;9.248;2023-04-24T14:48:42;14.10;99.90
16136;DHT22;8173;48.354;9.248;2023-04-24T14:53:35;11.40;99.90
16136;DHT22;8173;48.354;9.248;2023-04-24T14:56:02;11.30;99.90
16136;DHT22;8173;48.354;9.248;2023-04-24T14:58:29;11.00;99.90
16136;DHT22;8173;48.354;9.248;2023-04-24T15:03:24;11.10;99.90
16136;DHT22;8173;48.354;9.248;2023-04-24T15:05:52;10.90;99.90
16136;DHT22;8173;48.354;9.248;2023-04-24T15:08:18;10.70;99.90
16136;DHT22;8173;48.354;9.248;2023-04-24T15:10:46;11.10;99.90
16136;DHT22;8173;48.354;9.248;2023-04-24T15:13:13;10.50;99.90
16136;DHT22;8173;48.354;9.248;2023-04-24T15:15:39;10.50;99.90
16136;DHT22;8173;48.354;9.248;2023-04-24T15:18:07;10.50;99.90
16136;DHT22;8173;48.354;9.248;2023-04-24T15:20:37;10.60;99.90
16136;DHT22;8173;48.354;9.248;2023-04-24T15:23:05;11.50;99.90
16136;DHT22;8173;48.354;9.248;2023-04-24T15:25:32;11.50;99.90
16136;DHT22;8173;48.354;9.248;2023-04-24T15:27:58;11.60;99.90
16136;DHT22;8173;48.354;9.248;2023-04-24T15:30:26;11.60;99.90
16136;DHT22;8173;48.354;9.248;2023-04-24T15:32:53;11.30;99.90
16136;DHT22;8173;48.354;9.248;2023-04-24T15:35:19;11.20;99.90
16136;DHT22;8173;48.354;9.248;2023-04-24T15:37:47;11.20;99.90
16136;DHT22;8173;48.354;9.248;2023-04-24T15:40:14;11.10;99.90
16136;DHT22;8173;48.354;9.248;2023-04-24T15:42:42;11.50;99.90
16136;DHT22;8173;48.354;9.248;2023-04-24T15:45:09;11.90;99.90
16136;DHT22;8173;48.354;9.248;2023-04-24T15:47:37;11.80;99.90
16136;DHT22;8173;48.354;9.248;2023-04-24T15:50:04;11.30;99.90
16136;DHT22;8173;48.354;9.248;2023-04-24T15:52:33;10.80;99.90
16136;DHT22;8173;48.354;9.248;2023-04-24T15:55:02;10.50;99.90
16136;DHT22;8173;48.354;9.248;2023-04-24T15:57:30;10.40;99.90
16136;DHT22;8173;48.354;9.248;2023-04-24T15:59:57;10.30;99.90
16136;DHT22;8173;48.354;9.248;2023-04-24T16:02:24;10.20;99.90
16136;DHT22;8173;48.354;9.248;2023-04-24T16:07:19;10.00;99.90
16136;DHT22;8173;48.354;9.248;2023-04-24T16:09:45;9.90;99.90
16136;DHT22;8173;48.354;9.248;2023-04-24T16:12:13;9.80;99.90
16136;DHT22;8173;48.354;9.248;2023-04-24T16:14:41;9.90;99.90
16136;DHT22;8173;48.354;9.248;2023-04-24T16:17:08;9.80;99.90
16136;DHT22;8173;48.354;9.248;2023-04-24T16:19:34;9.80;99.90
16136;DHT22;8173;48.354;9.248;2023-04-24T16:22:02;9.70;99.90
16136;DHT22;8173;48.354;9.248;2023-04-24T16:24:29;9.60;99.90
16136;DHT22;8173;48.354;9.248;2023-04-24T16:26:56;9.70;99.90
16136;DHT22;8173;48.354;9.248;2023-04-24T16:29:24;9.50;99.90
16136;DHT22;8173;48.354;9.248;2023-04-24T16:31:51;9.30;99.90
16136;DHT22;8173;48.354;9.248;2023-04-24T16:36:45;9.20;99.90
16136;DHT22;8173;48.354;9.248;2023-04-24T16:39:11;9.10;99.90
16136;DHT22;8173;48.354;9.248;2023-04-24T16:41:39;9.10;99.90
16136;DHT22;8173;48.354;9.248;2023-04-24T16:44:05;9.00;99.90
16136;DHT22;8173;48.354;9.248;2023-04-24T16:46:34;9.00;99.90
16136;DHT22;8173;48.354;9.248;2023-04-24T16:49:01;9.10;99.90
16136;DHT22;8173;48.354;9.248;2023-04-24T16:51:28;9.00;99.90
16136;DHT22;8173;48.354;9.248;2023-04-24T16:58:49;8.70;99.90
16136;DHT22;8173;48.354;9.248;2023-04-24T17:01:15;8.80;99.90
16136;DHT22;8173;48.354;9.248;2023-04-24T17:03:43;8.90;99.90
16136;DHT22;8173;48.354;9.248;2023-04-24T17:06:11;9.00;99.90
16136;DHT22;8173;48.354;9.248;2023-04-24T17:08:38;8.90;99.90
16136;DHT22;8173;48.354;9.248;2023-04-24T17:11:04;9.00;99.90
16136;DHT22;8173;48.354;9.248;2023-04-24T17:13:31;9.10;99.90
16136;DHT22;8173;48.354;9.248;2023-04-24T17:18:25;9.10;99.90
16136;DHT22;8173;48.354;9.248;2023-04-24T17:20:53;9.00;99.90
16136;DHT22;8173;48.354;9.248;2023-04-24T17:23:20;8.90;99.90
16136;DHT22;8173;48.354;9.248;2023-04-24T17:25:47;8.80;99.90
16136;DHT22;8173;48.354;9.248;2023-04-24T17:28:22;9.40;99.90
16136;DHT22;8173;48.354;9.248;2023-04-24T17:33:16;8.30;99.90
16136;DHT22;8173;48.354;9.248;2023-04-24T17:35:43;8.10;99.90
16136;DHT22;8173;48.354;9.248;2023-04-24T17:38:11;9.00;99.90
16136;DHT22;8173;48.354;9.248;2023-04-24T17:40:38;8.00;99.90
16136;DHT22;8173;48.354;9.248;2023-04-24T17:43:04;7.50;99.90
16136;DHT22;8173;48.354;9.248;2023-04-24T17:45:31;8.00;99.90
16136;DHT22;8173;48.354;9.248;2023-04-24T17:47:58;8.00;99.90
16136;DHT22;8173;48.354;9.248;2023-04-24T17:50:25;8.00;99.90
16136;DHT22;8173;48.354;9.248;2023-04-24T17:52:51;7.90;99.90
16136;DHT22;8173;48.354;9.248;2023-04-24T17:55:20;7.90;99.90
16136;DHT22;8173;48.354;9.248;2023-04-24T17:57:46;7.90;99.90
16136;DHT22;8173;48.354;9.248;2023-04-24T18:00:14;7.90;99.90
16136;DHT22;8173;48.354;9.248;2023-04-24T18:02:41;7.90;99.90
16136;DHT22;8173;48.354;9.248;2023-04-24T18:05:08;7.80;99.90
16136;DHT22;8173;48.354;9.248;2023-04-24T18:07:34;7.80;99.90
16136;DHT22;8173;48.354;9.248;2023-04-24T18:10:01;7.70;99.90
16136;DHT22;8173;48.354;9.248;2023-04-24T18:12:29;7.70;99.90
16136;DHT22;8173;48.354;9.248;2023-04-24T18:14:56;7.60;99.90
16136;DHT22;8173;48.354;9.248;2023-04-24T18:17:23;7.60;99.90
16136;DHT22;8173;48.354;9.248;2023-04-24T18:22:17;7.50;99.90
16136;DHT22;8173;48.354;9.248;2023-04-24T18:24:44;7.50;99.90
16136;DHT22;8173;48.354;9.248;2023-04-24T18:29:39;7.50;99.90
16136;DHT22;8173;48.354;9.248;2023-04-24T18:32:05;7.40;99.90
16136;DHT22;8173;48.354;9.248;2023-04-24T18:34:32;7.30;99.90
16136;DHT22;8173;48.354;9.248;2023-04-24T18:36:59;7.30;99.90
16136;DHT22;8173;48.354;9.248;2023-04-24T18:39:26;7.20;99.90
16136;DHT22;8173;48.354;9.248;2023-04-24T18:41:53;7.30;99.90
16136;DHT22;8173;48.354;9.248;2023-04-24T18:44:19;7.40;99.90
16136;DHT22;8173;48.354;9.248;2023-04-24T18:46:47;7.30;99.90
16136;DHT22;8173;48.354;9.248;2023-04-24T18:49:14;7.30;99.90
16136;DHT22;8173;48.354;9.248;2023-04-24T18:51:41;7.30;99.90
16136;DHT22;8173;48.354;9.248;2023-04-24T18:54:08;7.30;99.90
16136;DHT22;8173;48.354;9.248;2023-04-24T18:59:02;7.30;99.90
16136;DHT22;8173;48.354;9.248;2023-04-24T19:01:28;7.30;99.90
16136;DHT22;8173;48.354;9.248;2023-04-24T19:03:58;7.30;99.90
16136;DHT22;8173;48.354;9.248;2023-04-24T19:06:25;7.30;99.90
16136;DHT22;8173;48.354;9.248;2023-04-24T19:08:52;7.30;99.90
16136;DHT22;8173;48.354;9.248;2023-04-24T19:11:18;7.20;99.90
16136;DHT22;8173;48.354;9.248;2023-04-24T19:13:45;7.30;99.90
16136;DHT22;8173;48.354;9.248;2023-04-24T19:16:12;7.20;99.90
16136;DHT22;8173;48.354;9.248;2023-04-24T19:18:39;7.20;99.90
16136;DHT22;8173;48.354;9.248;2023-04-24T19:21:07;7.20;99.90
16136;DHT22;8173;48.354;9.248;2023-04-24T19:26:04;7.30;99.90
16136;DHT22;8173;48.354;9.248;2023-04-24T19:28:31;7.30;99.90
16136;DHT22;8173;48.354;9.248;2023-04-24T19:30:57;7.40;99.90
16136;DHT22;8173;48.354;9.248;2023-04-24T19:35:52;7.10;99.90
16136;DHT22;8173;48.354;9.248;2023-04-24T19:38:20;7.10;99.90
16136;DHT22;8173;48.354;9.248;2023-04-24T19:43:14;6.90;99.90
16136;DHT22;8173;48.354;9.248;2023-04-24T19:45:41;6.80;99.90
16136;DHT22;8173;48.354;9.248;2023-04-24T19:50:35;6.80;99.90
16136;DHT22;8173;48.354;9.248;2023-04-24T19:53:02;6.70;99.90
16136;DHT22;8173;48.354;9.248;2023-04-24T19:55:32;6.60;99.90
16136;DHT22;8173;48.354;9.248;2023-04-24T19:57:58;6.50;99.90
16136;DHT22;8173;48.354;9.248;2023-04-24T20:00:25;6.60;99.90
16136;DHT22;8173;48.354;9.248;2023-04-24T20:02:52;6.50;99.90
16136;DHT22;8173;48.354;9.248;2023-04-24T20:05:19;6.50;99.90
16136;DHT22;8173;48.354;9.248;2023-04-24T20:10:15;6.40;99.90
16136;DHT22;8173;48.354;9.248;2023-04-24T20:12:43;6.30;99.90
16136;DHT22;8173;48.354;9.248;2023-04-24T20:15:10;6.20;99.90
16136;DHT22;8173;48.354;9.248;2023-04-24T20:17:37;6.10;99.90
16136;DHT22;8173;48.354;9.248;2023-04-24T20:20:05;6.00;99.90
16136;DHT22;8173;48.354;9.248;2023-04-24T20:22:32;5.80;99.90
16136;DHT22;8173;48.354;9.248;2023-04-24T20:27:30;5.50;99.90
16136;DHT22;8173;48.354;9.248;2023-04-24T20:29:58;5.40;99.90
16136;DHT22;8173;48.354;9.248;2023-04-24T20:32:25;5.30;99.90
16136;DHT22;8173;48.354;9.248;2023-04-24T20:34:52;5.00;99.90
16136;DHT22;8173;48.354;9.248;2023-04-24T20:37:19;4.90;99.90
16136;DHT22;8173;48.354;9.248;2023-04-24T20:39:46;4.80;99.90
16136;DHT22;8173;48.354;9.248;2023-04-24T20:47:12;4.70;99.90
16136;DHT22;8173;48.354;9.248;2023-04-24T20:49:39;4.70;99.90
16136;DHT22;8173;48.354;9.248;2023-04-24T20:52:06;4.70;99.90
16136;DHT22;8173;48.354;9.248;2023-04-24T20:54:33;4.70;99.90
16136;DHT22;8173;48.354;9.248;2023-04-24T20:59:27;4.50;99.90
16136;DHT22;8173;48.354;9.248;2023-04-24T21:01:54;4.40;99.90
16136;DHT22;8173;48.354;9.248;2023-04-24T21:06:49;4.30;99.90
16136;DHT22;8173;48.354;9.248;2023-04-24T21:09:15;4.30;99.90
16136;DHT22;8173;48.354;9.248;2023-04-24T21:11:42;4.30;99.90
16136;DHT22;8173;48.354;9.248;2023-04-24T21:14:09;4.10;99.90
16136;DHT22;8173;48.354;9.248;2023-04-24T21:16:36;4.10;99.90
16136;DHT22;8173;48.354;9.248;2023-04-24T21:19:03;4.00;99.90
16136;DHT22;8173;48.354;9.248;2023-04-24T21:21:31;4.00;99.90
16136;DHT22;8173;48.354;9.248;2023-04-24T21:26:28;3.90;99.90
16136;DHT22;8173;48.354;9.248;2023-04-24T21:28:55;4.00;99.90
16136;DHT22;8173;48.354;9.248;2023-04-24T21:33:49;4.00;99.90
16136;DHT22;8173;48.354;9.248;2023-04-24T21:38:44;3.70;99.90
16136;DHT22;8173;48.354;9.248;2023-04-24T21:41:11;3.70;99.90
16136;DHT22;8173;48.354;9.248;2023-04-24T21:48:32;1.90;99.90
16136;DHT22;8173;48.354;9.248;2023-04-24T21:50:59;3.60;99.90
16136;DHT22;8173;48.354;9.248;2023-04-24T21:53:26;3.70;99.90
16136;DHT22;8173;48.354;9.248;2023-04-24T21:55:55;3.70;99.90
16136;DHT22;8173;48.354;9.248;2023-04-24T22:03:16;4.00;99.90
16136;DHT22;8173;48.354;9.248;2023-04-24T22:05:43;4.00;99.90
16136;DHT22;8173;48.354;9.248;2023-04-24T22:08:09;4.00;99.90
16136;DHT22;8173;48.354;9.248;2023-04-24T22:10:36;4.00;99.90
16136;DHT22;8173;48.354;9.248;2023-04-24T22:15:31;4.10;99.90
16136;DHT22;8173;48.354;9.248;2023-04-24T22:17:58;4.30;99.90
16136;DHT22;8173;48.354;9.248;2023-04-24T22:20:25;4.40;99.90
16136;DHT22;8173;48.354;9.248;2023-04-24T22:22:52;4.40;99.90
16136;DHT22;8173;48.354;9.248;2023-04-24T22:25:19;4.30;99.90
16136;DHT22;8173;48.354;9.248;2023-04-24T22:32:41;4.00;99.90
16136;DHT22;8173;48.354;9.248;2023-04-24T22:35:08;3.90;99.90
16136;DHT22;8173;48.354;9.248;2023-04-24T22:37:35;3.80;99.90
16136;DHT22;8173;48.354;9.248;2023-04-24T22:42:29;3.70;99.90
16136;DHT22;8173;48.354;9.248;2023-04-24T22:44:56;3.70;99.90